createdAt,value
2023-05-10T00:00:08.686Z,99047.13
2023-05-10T00:03:00.974Z,99044.06
2023-05-10T00:05:29.048Z,99037.81
2023-05-10T00:07:57.173Z,99036.40
2023-05-10T00:10:25.146Z,99036.27
2023-05-10T00:12:53.149Z,99036.91
2023-05-10T00:15:21.123Z,99032.54
2023-05-10T00:17:49.177Z,99027.48
2023-05-10T00:20:17.747Z,99028.76
2023-05-10T00:22:46.040Z,99028.09
2023-05-10T00:25:13.992Z,99020.33
2023-05-10T00:27:41.928Z,99022.95
2023-05-10T00:30:10.386Z,99022.73
2023-05-10T00:32:38.434Z,99022.08
2023-05-10T00:35:06.784Z,99018.48
2023-05-10T00:37:34.805Z,99019.17
2023-05-10T00:40:02.755Z,99016.25
2023-05-10T00:42:30.758Z,99012.02
2023-05-10T00:44:58.969Z,99008.30
2023-05-10T00:47:27.169Z,99007.30
2023-05-10T00:49:55.521Z,99008.16
2023-05-10T00:52:24.745Z,99005.16
2023-05-10T00:54:53.338Z,99003.20
2023-05-10T00:57:21.921Z,99001.86
2023-05-10T00:59:50.078Z,99001.96
2023-05-10T01:02:18.025Z,99001.55
2023-05-10T01:04:46.279Z,98999.80
2023-05-10T01:07:14.302Z,99001.02
2023-05-10T01:09:42.504Z,99000.79
2023-05-10T01:12:10.511Z,99000.92
2023-05-10T01:14:38.690Z,98996.23
2023-05-10T01:17:08.667Z,98997.56
2023-05-10T01:19:38.687Z,98998.70
2023-05-10T01:22:32.979Z,98996.90
2023-05-10T01:25:13.101Z,98993.85
2023-05-10T01:28:08.850Z,98992.85
2023-05-10T01:30:48.850Z,98992.73
2023-05-10T01:33:31.223Z,98989.11
2023-05-10T01:36:27.241Z,98989.07
2023-05-10T01:39:12.676Z,98986.44
2023-05-10T01:42:03.214Z,98981.82
2023-05-10T01:44:42.935Z,98984.95
2023-05-10T01:47:39.137Z,98982.12
2023-05-10T01:50:16.351Z,98981.17
2023-05-10T01:52:50.869Z,98984.28
2023-05-10T01:55:24.247Z,98979.02
2023-05-10T01:57:56.343Z,98981.95
2023-05-10T02:00:25.475Z,98982.77
2023-05-10T02:02:54.506Z,98983.44
2023-05-10T02:05:23.987Z,98983.95
2023-05-10T02:07:53.385Z,98984.06
2023-05-10T02:10:21.783Z,98980.52
2023-05-10T02:12:51.823Z,98979.33
2023-05-10T02:15:23.819Z,98977.43
2023-05-10T02:17:53.578Z,98977.52
2023-05-10T02:20:22.773Z,98980.41
2023-05-10T02:22:52.603Z,98975.23
2023-05-10T02:25:22.236Z,98974.36
2023-05-10T02:27:52.767Z,98972.25
2023-05-10T02:30:21.639Z,98969.44
2023-05-10T02:32:52.755Z,98967.52
2023-05-10T02:35:22.144Z,98966.64
2023-05-10T02:37:51.545Z,98964.90
2023-05-10T02:40:22.419Z,98963.52
2023-05-10T02:42:53.396Z,98963.68
2023-05-10T02:45:25.918Z,98959.98
2023-05-10T02:47:53.863Z,98959.25
2023-05-10T02:50:23.420Z,98960.26
2023-05-10T02:52:53.294Z,98960.23
2023-05-10T02:55:25.117Z,98959.86
2023-05-10T02:57:59.478Z,98962.66
2023-05-10T03:00:27.735Z,98965.14
2023-05-10T03:02:56.216Z,98967.41
2023-05-10T03:05:24.722Z,98969.17
2023-05-10T03:07:53.930Z,98970.59
2023-05-10T03:10:27.890Z,98968.48
2023-05-10T03:13:20.916Z,98968.35
2023-05-10T03:16:09.163Z,98969.80
2023-05-10T03:18:49.354Z,98971.31
2023-05-10T03:21:19.700Z,98968.62
2023-05-10T03:23:57.484Z,98972.59
2023-05-10T03:26:28.254Z,98967.23
2023-05-10T03:29:04.281Z,98962.68
2023-05-10T03:31:32.310Z,98965.66
2023-05-10T03:34:00.878Z,98969.36
2023-05-10T03:36:29.209Z,98967.84
2023-05-10T03:38:57.307Z,98967.29
2023-05-10T03:41:26.500Z,98968.06
2023-05-10T03:43:55.069Z,98967.88
2023-05-10T03:46:23.727Z,98965.73
2023-05-10T03:48:51.793Z,98968.27
2023-05-10T03:51:19.955Z,98966.30
2023-05-10T03:53:47.894Z,98963.23
2023-05-10T03:56:16.193Z,98961.88
2023-05-10T03:58:44.147Z,98958.80
2023-05-10T04:01:12.500Z,98959.55
2023-05-10T04:03:40.672Z,98963.04
2023-05-10T04:06:10.176Z,98960.74
2023-05-10T04:08:38.216Z,98957.33
2023-05-10T04:11:10.533Z,98955.64
2023-05-10T04:13:39.069Z,98953.90
2023-05-10T04:16:07.278Z,98954.42
2023-05-10T04:18:35.684Z,98960.66
2023-05-10T04:21:03.745Z,98962.33
2023-05-10T04:23:31.633Z,98961.28
2023-05-10T04:26:03.216Z,98953.45
2023-05-10T04:28:31.068Z,98952.14
2023-05-10T04:31:09.278Z,98950.09
2023-05-10T04:33:38.100Z,98945.52
2023-05-10T04:36:06.702Z,98945.23
2023-05-10T04:38:35.472Z,98946.64
2023-05-10T04:41:10.815Z,98946.59
2023-05-10T04:43:39.534Z,98945.63
2023-05-10T04:46:08.571Z,98941.73
2023-05-10T04:48:36.599Z,98939.09
2023-05-10T04:51:05.081Z,98942.04
2023-05-10T04:53:33.627Z,98938.48
2023-05-10T04:56:01.602Z,98943.29
2023-05-10T04:58:29.633Z,98940.25
2023-05-10T05:00:57.542Z,98934.10
2023-05-10T05:03:25.509Z,98932.42
2023-05-10T05:05:53.475Z,98929.09
2023-05-10T05:08:21.409Z,98929.95
2023-05-10T05:10:51.221Z,98928.99
2023-05-10T05:13:19.664Z,98927.35
2023-05-10T05:15:47.724Z,98925.07
2023-05-10T05:18:15.676Z,98923.14
2023-05-10T05:20:43.643Z,98925.96
2023-05-10T05:23:11.498Z,98920.27
2023-05-10T05:25:39.687Z,98920.60
2023-05-10T05:28:07.626Z,98918.23
2023-05-10T05:30:35.512Z,98917.58
2023-05-10T05:33:03.849Z,98918.90
2023-05-10T05:35:31.780Z,98919.52
2023-05-10T05:37:59.698Z,98915.49
2023-05-10T05:40:27.585Z,98911.86
2023-05-10T05:42:55.495Z,98910.12
2023-05-10T05:45:23.386Z,98906.98
2023-05-10T05:47:51.325Z,98906.30
2023-05-10T05:50:19.445Z,98903.50
2023-05-10T05:52:47.428Z,98903.09
2023-05-10T05:55:15.720Z,98906.50
2023-05-10T05:57:43.848Z,98905.44
2023-05-10T06:00:12.188Z,98903.35
2023-05-10T06:02:42.972Z,98906.44
2023-05-10T06:05:11.070Z,98907.60
2023-05-10T06:07:39.093Z,98906.73
2023-05-10T06:10:07.687Z,98904.75
2023-05-10T06:12:35.898Z,98903.44
2023-05-10T06:15:04.618Z,98899.36
2023-05-10T06:17:32.659Z,98895.60
2023-05-10T06:20:00.592Z,98896.88
2023-05-10T06:22:28.495Z,98902.62
2023-05-10T06:24:56.383Z,98904.86
2023-05-10T06:27:24.310Z,98899.94
2023-05-10T06:29:56.486Z,98901.50
2023-05-10T06:32:30.244Z,98900.02
2023-05-10T06:34:58.664Z,98897.28
2023-05-10T06:37:26.601Z,98892.34
2023-05-10T06:39:54.578Z,98895.25
2023-05-10T06:42:22.490Z,98892.73
2023-05-10T06:44:50.355Z,98892.67
2023-05-10T06:47:18.328Z,98894.45
2023-05-10T06:49:46.374Z,98890.68
2023-05-10T06:52:14.233Z,98890.25
2023-05-10T06:54:42.096Z,98892.71
2023-05-10T06:57:23.257Z,98885.80
2023-05-10T06:59:59.655Z,98891.32
2023-05-10T07:02:27.784Z,98892.13
2023-05-10T07:04:55.950Z,98891.71
2023-05-10T07:07:23.879Z,98895.85
2023-05-10T07:09:52.279Z,98887.48
2023-05-10T07:12:20.252Z,98887.27
2023-05-10T07:14:48.269Z,98884.90
2023-05-10T07:17:16.371Z,98884.21
2023-05-10T07:19:44.387Z,98881.74
2023-05-10T07:22:12.582Z,98888.22
2023-05-10T07:24:41.507Z,98889.60
2023-05-10T07:27:10.048Z,98886.33
2023-05-10T07:29:38.504Z,98885.46
2023-05-10T07:32:06.961Z,98885.04
2023-05-10T07:34:35.235Z,98880.75
2023-05-10T07:37:03.191Z,98878.56
2023-05-10T07:39:31.116Z,98883.14
2023-05-10T07:41:59.035Z,98880.66
2023-05-10T07:44:26.980Z,98879.23
2023-05-10T07:46:54.973Z,98878.79
2023-05-10T07:49:25.142Z,98878.47
2023-05-10T07:51:53.034Z,98872.13
2023-05-10T07:54:20.959Z,98874.49
2023-05-10T07:56:49.259Z,98875.63
2023-05-10T07:59:18.482Z,98874.68
2023-05-10T08:01:46.495Z,98872.16
2023-05-10T08:04:14.438Z,98876.48
2023-05-10T08:06:42.626Z,98868.34
2023-05-10T08:09:10.682Z,98866.48
2023-05-10T08:11:38.846Z,98864.77
2023-05-10T08:14:06.798Z,98865.88
2023-05-10T08:16:35.493Z,98865.53
2023-05-10T08:19:03.637Z,98864.81
2023-05-10T08:21:32.312Z,98861.36
2023-05-10T08:24:00.212Z,98859.90
2023-05-10T08:26:28.178Z,98858.86
2023-05-10T08:28:56.052Z,98861.52
2023-05-10T08:31:24.134Z,98855.42
2023-05-10T08:33:53.624Z,98859.13
2023-05-10T08:36:22.940Z,98851.08
2023-05-10T08:38:53.061Z,98854.12
2023-05-10T08:41:27.749Z,98853.45
2023-05-10T08:43:56.118Z,98854.36
2023-05-10T08:46:24.564Z,98849.95
2023-05-10T08:48:53.146Z,98854.64
2023-05-10T08:51:27.621Z,98849.61
2023-05-10T08:53:56.101Z,98843.41
2023-05-10T08:56:25.134Z,98844.73
2023-05-10T08:58:53.157Z,98836.83
2023-05-10T09:01:22.296Z,98840.53
2023-05-10T09:03:51.633Z,98837.48
2023-05-10T09:06:19.817Z,98833.98
2023-05-10T09:08:48.729Z,98829.23
2023-05-10T09:11:17.226Z,98833.48
2023-05-10T09:13:45.714Z,98831.10
2023-05-10T09:16:21.370Z,98831.27
2023-05-10T09:18:50.785Z,98830.52
2023-05-10T09:21:20.702Z,98826.94
2023-05-10T09:23:51.130Z,98829.42
2023-05-10T09:26:23.938Z,98832.28
2023-05-10T09:28:56.994Z,98829.74
2023-05-10T09:31:28.261Z,98828.52
2023-05-10T09:33:56.377Z,98827.66
2023-05-10T09:36:24.396Z,98829.20
2023-05-10T09:38:53.612Z,98834.48
2023-05-10T09:41:23.874Z,98838.10
2023-05-10T09:43:56.775Z,98835.68
2023-05-10T09:46:24.858Z,98837.04
2023-05-10T09:48:52.875Z,98831.55
2023-05-10T09:51:21.344Z,98833.17
2023-05-10T09:53:51.609Z,98833.10
2023-05-10T09:56:35.165Z,98831.58
2023-05-10T09:59:04.143Z,98832.85
2023-05-10T10:01:32.380Z,98835.33
2023-05-10T10:04:02.468Z,98830.35
2023-05-10T10:06:30.879Z,98827.90
2023-05-10T10:08:58.867Z,98832.34
2023-05-10T10:11:26.884Z,98828.89
2023-05-10T10:13:55.543Z,98833.33
2023-05-10T10:16:24.235Z,98836.98
2023-05-10T10:18:52.185Z,98837.75
2023-05-10T10:21:21.361Z,98832.77
2023-05-10T10:23:49.473Z,98830.25
2023-05-10T10:26:19.265Z,98824.77
2023-05-10T10:29:21.393Z,98827.49
2023-05-10T10:32:01.114Z,98830.64
2023-05-10T10:34:30.650Z,98831.60
2023-05-10T10:36:59.084Z,98831.52
2023-05-10T10:39:27.735Z,98830.95
2023-05-10T10:41:57.806Z,98832.52
2023-05-10T10:44:37.913Z,98835.80
2023-05-10T10:47:25.132Z,98833.96
2023-05-10T10:50:04.794Z,98831.36
2023-05-10T10:52:36.753Z,98829.13
2023-05-10T10:55:12.165Z,98832.39
2023-05-10T10:57:53.481Z,98838.04
2023-05-10T11:00:29.799Z,98837.28
2023-05-10T11:03:01.038Z,98832.84
2023-05-10T11:05:37.759Z,98837.63
2023-05-10T11:08:11.754Z,98840.62
2023-05-10T11:10:41.129Z,98836.71
2023-05-10T11:13:11.138Z,98832.88
2023-05-10T11:15:40.620Z,98827.41
2023-05-10T11:18:24.393Z,98833.19
2023-05-10T11:20:56.169Z,98830.93
2023-05-10T11:23:25.121Z,98832.44
2023-05-10T11:25:53.020Z,98837.36
2023-05-10T11:28:20.955Z,98834.33
2023-05-10T11:30:49.115Z,98828.95
2023-05-10T11:33:18.827Z,98832.41
2023-05-10T11:35:47.177Z,98836.69
2023-05-10T11:38:15.252Z,98839.27
2023-05-10T11:40:44.180Z,98830.92
2023-05-10T11:43:12.371Z,98833.58
2023-05-10T11:45:43.567Z,98836.77
2023-05-10T11:48:11.576Z,98841.65
2023-05-10T11:50:39.672Z,98845.81
2023-05-10T11:53:07.605Z,98839.32
2023-05-10T11:55:35.612Z,98837.13
2023-05-10T11:58:03.768Z,98836.25
2023-05-10T12:00:32.810Z,98840.52
2023-05-10T12:03:02.273Z,98837.67
2023-05-10T12:05:33.305Z,98836.20
2023-05-10T12:08:15.113Z,98839.43
2023-05-10T12:10:43.132Z,98842.69
2023-05-10T12:13:15.442Z,98839.07
2023-05-10T12:15:44.365Z,98833.90
2023-05-10T12:18:13.658Z,98838.11
2023-05-10T12:20:42.151Z,98842.96
2023-05-10T12:23:10.946Z,98846.45
2023-05-10T12:25:39.829Z,98846.56
2023-05-10T12:30:55.754Z,98841.39
2023-05-10T12:33:23.670Z,98840.90
2023-05-10T12:35:54.179Z,98841.97
2023-05-10T12:38:38.391Z,98842.06
2023-05-10T12:41:09.454Z,98845.41
2023-05-10T12:43:38.019Z,98843.98
2023-05-10T12:46:13.617Z,98844.95
2023-05-10T12:48:43.303Z,98842.35
2023-05-10T12:51:12.895Z,98841.20
2023-05-10T12:53:42.576Z,98842.97
2023-05-10T12:56:12.524Z,98840.02
2023-05-10T12:58:40.456Z,98838.55
2023-05-10T13:03:54.782Z,98844.40
2023-05-10T13:06:22.798Z,98848.41
2023-05-10T13:08:50.785Z,98845.91
2023-05-10T13:11:20.900Z,98845.09
2023-05-10T13:13:48.884Z,98836.94
2023-05-10T13:16:16.992Z,98835.66
2023-05-10T13:18:45.153Z,98837.67
2023-05-10T13:21:13.187Z,98836.43
2023-05-10T13:23:41.210Z,98833.17
2023-05-10T13:26:09.314Z,98831.16
2023-05-10T13:28:37.362Z,98823.57
2023-05-10T13:31:06.053Z,98823.39
2023-05-10T13:33:34.082Z,98824.77
2023-05-10T13:36:02.044Z,98823.90
2023-05-10T13:38:30.084Z,98822.62
2023-05-10T13:40:58.107Z,98826.59
2023-05-10T13:43:26.109Z,98822.09
2023-05-10T13:45:54.114Z,98819.48
2023-05-10T13:48:22.191Z,98817.19
2023-05-10T13:50:50.183Z,98815.95
2023-05-10T13:53:18.349Z,98818.52
2023-05-10T13:55:46.344Z,98817.35
2023-05-10T13:58:14.410Z,98818.82
2023-05-10T14:00:42.554Z,98818.90
2023-05-10T14:03:12.405Z,98822.45
2023-05-10T14:05:40.814Z,98818.13
2023-05-10T14:08:10.430Z,98815.30
2023-05-10T14:10:39.075Z,98817.14
2023-05-10T14:13:07.515Z,98816.86
2023-05-10T14:15:35.494Z,98818.17
2023-05-10T14:18:03.688Z,98820.80
2023-05-10T14:20:33.169Z,98818.39
2023-05-10T14:23:01.472Z,98817.14
2023-05-10T14:25:29.625Z,98820.51
2023-05-10T14:27:57.804Z,98815.92
2023-05-10T14:30:25.900Z,98814.50
2023-05-10T14:32:55.172Z,98814.84
2023-05-10T14:35:23.589Z,98811.79
2023-05-10T14:37:51.810Z,98811.88
2023-05-10T14:40:20.008Z,98811.96
2023-05-10T14:42:48.087Z,98813.30
2023-05-10T14:45:16.268Z,98808.67
2023-05-10T14:47:44.550Z,98810.60
2023-05-10T14:50:18.910Z,98810.84
2023-05-10T14:52:52.891Z,98808.98
2023-05-10T14:55:21.367Z,98809.75
2023-05-10T14:57:51.388Z,98805.58
2023-05-10T15:00:20.406Z,98804.64
2023-05-10T15:02:49.464Z,98810.02
2023-05-10T15:05:18.360Z,98812.05
2023-05-10T15:07:46.920Z,98813.16
2023-05-10T15:10:15.674Z,98816.38
2023-05-10T15:12:43.691Z,98818.77
2023-05-10T15:15:11.657Z,98818.36
2023-05-10T15:17:39.764Z,98821.95
2023-05-10T15:20:08.525Z,98824.56
2023-05-10T15:22:36.851Z,98817.21
2023-05-10T15:25:05.531Z,98818.90
2023-05-10T15:27:33.759Z,98823.23
2023-05-10T15:30:02.124Z,98821.52
2023-05-10T15:32:30.370Z,98818.14
2023-05-10T15:34:59.105Z,98817.36
2023-05-10T15:37:27.348Z,98820.39
2023-05-10T15:39:56.321Z,98820.88
2023-05-10T15:42:25.569Z,98818.23
2023-05-10T15:44:53.536Z,98820.45
2023-05-10T15:47:21.513Z,98819.46
2023-05-10T15:49:49.594Z,98818.35
2023-05-10T15:52:19.297Z,98820.55
2023-05-10T15:54:47.403Z,98819.91
2023-05-10T15:57:15.388Z,98817.90
2023-05-10T15:59:43.468Z,98818.42
2023-05-10T16:02:12.334Z,98818.20
2023-05-10T16:04:40.479Z,98817.74
2023-05-10T16:07:08.434Z,98818.94
2023-05-10T16:09:36.542Z,98819.40
2023-05-10T16:12:04.586Z,98820.29
2023-05-10T16:14:32.612Z,98815.96
2023-05-10T16:17:00.769Z,98820.29
2023-05-10T16:19:29.827Z,98825.71
2023-05-10T16:21:58.047Z,98827.52
2023-05-10T16:24:26.403Z,98828.86
2023-05-10T16:26:54.357Z,98828.81
2023-05-10T16:29:22.415Z,98832.57
2023-05-10T16:31:50.435Z,98831.86
2023-05-10T16:34:20.578Z,98832.73
2023-05-10T16:36:48.518Z,98833.49
2023-05-10T16:39:16.714Z,98835.39
2023-05-10T16:41:45.203Z,98838.88
2023-05-10T16:44:13.221Z,98839.02
2023-05-10T16:46:41.222Z,98843.94
2023-05-10T16:49:09.349Z,98850.11
2023-05-10T16:51:37.344Z,98853.73
2023-05-10T16:54:05.377Z,98855.99
2023-05-10T16:56:33.404Z,98858.52
2023-05-10T16:59:01.554Z,98862.06
2023-05-10T17:01:29.785Z,98861.29
2023-05-10T17:03:57.957Z,98868.76
2023-05-10T17:06:26.092Z,98871.21
2023-05-10T17:08:54.423Z,98874.64
2023-05-10T17:11:22.451Z,98876.18
2023-05-10T17:13:52.414Z,98875.16
2023-05-10T17:16:21.466Z,98877.05
2023-05-10T17:18:49.523Z,98878.60
2023-05-10T17:21:17.637Z,98882.79
2023-05-10T17:23:45.649Z,98886.13
2023-05-10T17:26:13.613Z,98885.84
2023-05-10T17:28:41.582Z,98881.96
2023-05-10T17:31:09.824Z,98883.77
2023-05-10T17:33:38.688Z,98884.52
2023-05-10T17:36:07.004Z,98886.33
2023-05-10T17:38:36.186Z,98889.01
2023-05-10T17:41:04.278Z,98890.56
2023-05-10T17:43:32.318Z,98889.84
2023-05-10T17:46:00.486Z,98897.05
2023-05-10T17:48:28.504Z,98897.60
2023-05-10T17:50:56.593Z,98900.14
2023-05-10T17:53:24.868Z,98901.23
2023-05-10T17:55:53.836Z,98905.70
2023-05-10T17:58:21.892Z,98908.82
2023-05-10T18:00:49.930Z,98909.84
2023-05-10T18:03:18.148Z,98912.98
2023-05-10T18:05:47.811Z,98915.03
2023-05-10T18:08:16.063Z,98914.86
2023-05-10T18:10:44.097Z,98915.80
2023-05-10T18:13:12.130Z,98917.66
2023-05-10T18:15:40.138Z,98921.69
2023-05-10T18:18:08.906Z,98921.87
2023-05-10T18:20:37.451Z,98926.07
2023-05-10T18:23:06.389Z,98927.58
2023-05-10T18:25:34.526Z,98931.44
2023-05-10T18:28:05.233Z,98934.00
2023-05-10T18:30:33.185Z,98941.58
2023-05-10T18:33:01.378Z,98944.04
2023-05-10T18:35:29.516Z,98945.63
2023-05-10T18:37:58.131Z,98946.02
2023-05-10T18:40:27.050Z,98946.33
2023-05-10T18:42:55.053Z,98948.60
2023-05-10T18:45:23.097Z,98952.02
2023-05-10T18:47:51.114Z,98956.45
2023-05-10T18:50:19.900Z,98960.79
2023-05-10T18:52:48.004Z,98963.52
2023-05-10T18:55:16.419Z,98967.60
2023-05-10T18:57:45.212Z,98970.05
2023-05-10T19:00:13.631Z,98975.63
2023-05-10T19:02:41.907Z,98975.69
2023-05-10T19:05:10.314Z,98976.91
2023-05-10T19:07:38.511Z,98980.16
2023-05-10T19:10:07.002Z,98985.86
2023-05-10T19:12:35.326Z,98989.13
2023-05-10T19:15:03.394Z,98991.33
2023-05-10T19:17:31.951Z,98991.27
2023-05-10T19:20:00.121Z,98992.56
2023-05-10T19:22:43.573Z,98991.42
2023-05-10T19:25:17.546Z,98989.40
2023-05-10T19:27:45.998Z,98991.17
2023-05-10T19:30:13.991Z,98990.96
2023-05-10T19:32:44.207Z,98987.06
2023-05-10T19:35:13.221Z,98987.64
2023-05-10T19:37:46.110Z,98988.95
2023-05-10T19:40:18.602Z,98989.14
2023-05-10T19:42:46.701Z,98992.33
2023-05-10T19:45:15.908Z,98994.26
2023-05-10T19:47:44.204Z,98996.71
2023-05-10T19:50:12.698Z,98995.98
2023-05-10T19:52:40.836Z,98997.01
2023-05-10T19:55:09.373Z,98995.77
2023-05-10T19:57:38.073Z,99000.00
2023-05-10T20:00:06.851Z,99001.63
2023-05-10T20:02:39.219Z,99002.25
2023-05-10T20:05:07.785Z,99002.52
2023-05-10T20:07:36.983Z,99007.71
2023-05-10T20:10:05.249Z,99007.92
2023-05-10T20:12:33.155Z,99011.30
2023-05-10T20:15:01.125Z,99008.75
2023-05-10T20:17:29.397Z,99005.45
2023-05-10T20:19:57.348Z,99006.71
2023-05-10T20:22:25.737Z,99006.41
2023-05-10T20:24:55.835Z,99008.19
2023-05-10T20:27:24.218Z,99004.94
2023-05-10T20:29:52.225Z,99005.15
2023-05-10T20:32:20.077Z,99004.52
2023-05-10T20:34:48.222Z,99006.58
2023-05-10T20:37:17.809Z,99006.94
2023-05-10T20:39:45.703Z,99006.48
2023-05-10T20:42:13.816Z,99007.61
2023-05-10T20:44:42.053Z,99008.26
2023-05-10T20:47:10.033Z,99009.16
2023-05-10T20:49:38.112Z,99007.55
2023-05-10T20:52:06.691Z,99005.00
2023-05-10T20:54:34.601Z,99008.48
2023-05-10T20:57:02.511Z,99006.13
2023-05-10T20:59:30.652Z,99006.28
2023-05-10T21:01:58.727Z,99012.67
2023-05-10T21:04:27.228Z,99012.07
2023-05-10T21:06:56.962Z,99010.96
2023-05-10T21:09:24.906Z,99005.39
2023-05-10T21:11:52.867Z,99008.41
2023-05-10T21:14:20.847Z,99007.29
2023-05-10T21:16:51.093Z,99004.98
2023-05-10T21:19:19.127Z,99003.56
2023-05-10T21:21:47.354Z,99003.80
2023-05-10T21:24:15.345Z,99001.89
2023-05-10T21:26:43.416Z,99005.10
2023-05-10T21:29:11.363Z,99007.21
2023-05-10T21:31:39.355Z,99004.58
2023-05-10T21:34:07.335Z,99001.77
2023-05-10T21:36:35.283Z,99001.77
2023-05-10T21:39:03.357Z,99007.65
2023-05-10T21:41:31.315Z,99011.35
2023-05-10T21:43:59.249Z,99007.48
2023-05-10T21:46:27.222Z,99010.04
2023-05-10T21:48:56.161Z,99009.57
2023-05-10T21:51:24.081Z,99009.28
2023-05-10T21:53:52.030Z,99010.73
2023-05-10T21:56:19.963Z,99013.93
2023-05-10T21:58:47.834Z,99019.61
2023-05-10T22:01:18.009Z,99019.77
2023-05-10T22:03:46.283Z,99023.07
2023-05-10T22:06:14.273Z,99023.92
2023-05-10T22:08:42.219Z,99023.89
2023-05-10T22:11:10.081Z,99020.64
2023-05-10T22:13:38.028Z,99022.81
2023-05-10T22:16:06.926Z,99019.63
2023-05-10T22:18:34.883Z,99023.36
2023-05-10T22:21:02.805Z,99022.52
2023-05-10T22:23:30.818Z,99021.80
2023-05-10T22:26:02.779Z,99022.11
2023-05-10T22:28:30.689Z,99024.00
2023-05-10T22:30:58.638Z,99025.82
2023-05-10T22:33:26.547Z,99027.94
2023-05-10T22:35:54.463Z,99028.75
2023-05-10T22:38:22.436Z,99030.02
2023-05-10T22:40:50.340Z,99027.10
2023-05-10T22:43:18.269Z,99027.95
2023-05-10T22:45:46.208Z,99028.02
2023-05-10T22:48:15.481Z,99029.67
2023-05-10T22:50:43.464Z,99026.80
2023-05-10T22:53:11.446Z,99028.94
2023-05-10T22:55:39.345Z,99029.21
2023-05-10T22:58:07.559Z,99025.89
2023-05-10T23:00:35.549Z,99030.35
2023-05-10T23:03:05.018Z,99035.38
2023-05-10T23:05:32.957Z,99038.54
2023-05-10T23:08:00.842Z,99045.17
2023-05-10T23:10:28.928Z,99047.21
2023-05-10T23:12:56.880Z,99045.55
2023-05-10T23:15:24.796Z,99048.24
2023-05-10T23:17:52.758Z,99052.21
2023-05-10T23:20:21.004Z,99056.45
2023-05-10T23:22:49.616Z,99060.88
2023-05-10T23:25:17.517Z,99059.30
2023-05-10T23:27:45.468Z,99058.30
2023-05-10T23:30:13.588Z,99060.00
2023-05-10T23:32:41.523Z,99057.94
2023-05-10T23:35:09.737Z,99058.05
2023-05-10T23:37:37.653Z,99059.55
2023-05-10T23:40:06.354Z,99055.63
2023-05-10T23:42:34.294Z,99059.29
2023-05-10T23:45:02.843Z,99062.13
2023-05-10T23:47:30.746Z,99061.45
2023-05-10T23:49:58.766Z,99066.05
2023-05-10T23:52:26.740Z,99064.67
2023-05-10T23:54:54.984Z,99066.33
2023-05-10T23:57:22.937Z,99066.51
2023-05-10T23:59:50.951Z,99066.83
